sensor_id;sensor_type;location;lat;lon;timestamp;P1;durP1;ratioP1;P2;durP2;ratioP2
8632;SDS011;4354;49.832;10.746;2024-03-08T00:00:06;28.43;;;19.13;;
8632;SDS011;4354;49.832;10.746;2024-03-08T00:02:41;29.67;;;18.70;;
8632;SDS011;4354;49.832;10.746;2024-03-08T00:05:08;29.20;;;18.27;;
8632;SDS011;4354;49.832;10.746;2024-03-08T00:07:35;27.37;;;19.10;;
8632;SDS011;4354;49.832;10.746;2024-03-08T00:10:03;26.37;;;18.17;;
8632;SDS011;4354;49.832;10.746;2024-03-08T00:12:31;28.33;;;17.90;;
8632;SDS011;4354;49.832;10.746;2024-03-08T00:14:58;27.30;;;18.63;;
8632;SDS011;4354;49.832;10.746;2024-03-08T00:17:25;28.47;;;19.07;;
8632;SDS011;4354;49.832;10.746;2024-03-08T00:19:53;29.23;;;18.87;;
8632;SDS011;4354;49.832;10.746;2024-03-08T00:22:20;31.07;;;19.80;;
8632;SDS011;4354;49.832;10.746;2024-03-08T00:24:48;25.83;;;17.67;;
8632;SDS011;4354;49.832;10.746;2024-03-08T00:27:16;28.47;;;19.63;;
8632;SDS011;4354;49.832;10.746;2024-03-08T00:29:43;31.03;;;19.27;;
8632;SDS011;4354;49.832;10.746;2024-03-08T00:32:11;26.17;;;18.57;;
8632;SDS011;4354;49.832;10.746;2024-03-08T00:34:39;28.53;;;18.70;;
8632;SDS011;4354;49.832;10.746;2024-03-08T00:37:05;28.87;;;18.60;;
8632;SDS011;4354;49.832;10.746;2024-03-08T00:39:32;29.13;;;19.37;;
8632;SDS011;4354;49.832;10.746;2024-03-08T00:41:59;29.10;;;19.13;;
8632;SDS011;4354;49.832;10.746;2024-03-08T00:44:26;31.90;;;20.53;;
8632;SDS011;4354;49.832;10.746;2024-03-08T00:46:53;31.03;;;19.07;;
8632;SDS011;4354;49.832;10.746;2024-03-08T00:49:20;30.17;;;18.47;;
8632;SDS011;4354;49.832;10.746;2024-03-08T00:51:49;29.23;;;18.73;;
8632;SDS011;4354;49.832;10.746;2024-03-08T00:54:15;30.17;;;18.73;;
8632;SDS011;4354;49.832;10.746;2024-03-08T00:56:42;32.00;;;18.77;;
8632;SDS011;4354;49.832;10.746;2024-03-08T00:59:09;30.53;;;19.53;;
8632;SDS011;4354;49.832;10.746;2024-03-08T01:01:36;30.90;;;18.90;;
8632;SDS011;4354;49.832;10.746;2024-03-08T01:04:03;31.73;;;19.60;;
8632;SDS011;4354;49.832;10.746;2024-03-08T01:06:30;27.50;;;17.83;;
8632;SDS011;4354;49.832;10.746;2024-03-08T01:08:57;28.27;;;19.03;;
8632;SDS011;4354;49.832;10.746;2024-03-08T01:11:23;30.53;;;19.53;;
8632;SDS011;4354;49.832;10.746;2024-03-08T01:13:50;29.07;;;18.17;;
8632;SDS011;4354;49.832;10.746;2024-03-08T01:16:17;29.77;;;19.83;;
8632;SDS011;4354;49.832;10.746;2024-03-08T01:18:46;25.47;;;17.57;;
8632;SDS011;4354;49.832;10.746;2024-03-08T01:21:13;31.43;;;19.67;;
8632;SDS011;4354;49.832;10.746;2024-03-08T01:23:40;29.40;;;18.10;;
8632;SDS011;4354;49.832;10.746;2024-03-08T01:26:06;26.93;;;17.63;;
8632;SDS011;4354;49.832;10.746;2024-03-08T01:28:33;31.40;;;18.23;;
8632;SDS011;4354;49.832;10.746;2024-03-08T01:31:01;28.53;;;19.57;;
8632;SDS011;4354;49.832;10.746;2024-03-08T01:33:30;32.17;;;19.50;;
8632;SDS011;4354;49.832;10.746;2024-03-08T01:35:57;33.73;;;18.83;;
8632;SDS011;4354;49.832;10.746;2024-03-08T01:38:24;28.33;;;18.63;;
8632;SDS011;4354;49.832;10.746;2024-03-08T01:40:51;31.53;;;18.80;;
8632;SDS011;4354;49.832;10.746;2024-03-08T01:45:45;28.97;;;18.67;;
8632;SDS011;4354;49.832;10.746;2024-03-08T01:48:13;30.57;;;19.27;;
8632;SDS011;4354;49.832;10.746;2024-03-08T01:50:44;30.57;;;19.33;;
8632;SDS011;4354;49.832;10.746;2024-03-08T01:53:12;30.67;;;18.17;;
8632;SDS011;4354;49.832;10.746;2024-03-08T01:55:41;30.30;;;19.17;;
8632;SDS011;4354;49.832;10.746;2024-03-08T01:58:10;35.13;;;19.57;;
8632;SDS011;4354;49.832;10.746;2024-03-08T02:00:38;29.90;;;19.13;;
8632;SDS011;4354;49.832;10.746;2024-03-08T02:03:06;32.30;;;19.83;;
8632;SDS011;4354;49.832;10.746;2024-03-08T02:05:33;28.27;;;18.60;;
8632;SDS011;4354;49.832;10.746;2024-03-08T02:08:00;28.77;;;19.17;;
8632;SDS011;4354;49.832;10.746;2024-03-08T02:10:28;27.60;;;18.07;;
8632;SDS011;4354;49.832;10.746;2024-03-08T02:12:55;33.37;;;19.67;;
8632;SDS011;4354;49.832;10.746;2024-03-08T02:15:22;33.80;;;19.20;;
8632;SDS011;4354;49.832;10.746;2024-03-08T02:17:49;29.47;;;19.17;;
8632;SDS011;4354;49.832;10.746;2024-03-08T02:20:16;31.87;;;20.33;;
8632;SDS011;4354;49.832;10.746;2024-03-08T02:22:42;32.13;;;19.07;;
8632;SDS011;4354;49.832;10.746;2024-03-08T02:25:09;30.13;;;19.27;;
8632;SDS011;4354;49.832;10.746;2024-03-08T02:27:37;30.73;;;19.27;;
8632;SDS011;4354;49.832;10.746;2024-03-08T02:30:04;28.93;;;18.83;;
8632;SDS011;4354;49.832;10.746;2024-03-08T02:32:31;32.30;;;18.33;;
8632;SDS011;4354;49.832;10.746;2024-03-08T02:34:59;29.93;;;18.93;;
8632;SDS011;4354;49.832;10.746;2024-03-08T02:37:26;28.83;;;18.03;;
8632;SDS011;4354;49.832;10.746;2024-03-08T02:39:54;30.67;;;19.53;;
8632;SDS011;4354;49.832;10.746;2024-03-08T02:42:21;29.70;;;18.33;;
8632;SDS011;4354;49.832;10.746;2024-03-08T02:44:49;31.80;;;18.10;;
8632;SDS011;4354;49.832;10.746;2024-03-08T02:47:16;26.87;;;17.40;;
8632;SDS011;4354;49.832;10.746;2024-03-08T02:49:43;29.27;;;18.47;;
8632;SDS011;4354;49.832;10.746;2024-03-08T02:52:09;27.77;;;18.27;;
8632;SDS011;4354;49.832;10.746;2024-03-08T02:54:37;28.50;;;18.10;;
8632;SDS011;4354;49.832;10.746;2024-03-08T02:57:04;30.20;;;17.83;;
8632;SDS011;4354;49.832;10.746;2024-03-08T02:59:33;31.10;;;18.20;;
8632;SDS011;4354;49.832;10.746;2024-03-08T03:02:00;32.57;;;18.67;;
8632;SDS011;4354;49.832;10.746;2024-03-08T03:04:27;30.80;;;18.50;;
8632;SDS011;4354;49.832;10.746;2024-03-08T03:06:54;32.03;;;18.43;;
8632;SDS011;4354;49.832;10.746;2024-03-08T03:09:21;33.87;;;21.53;;
8632;SDS011;4354;49.832;10.746;2024-03-08T03:11:50;33.53;;;19.97;;
8632;SDS011;4354;49.832;10.746;2024-03-08T03:14:17;30.13;;;20.20;;
8632;SDS011;4354;49.832;10.746;2024-03-08T03:16:43;35.50;;;19.73;;
8632;SDS011;4354;49.832;10.746;2024-03-08T03:19:12;30.17;;;18.47;;
8632;SDS011;4354;49.832;10.746;2024-03-08T03:21:39;31.80;;;19.27;;
8632;SDS011;4354;49.832;10.746;2024-03-08T03:24:05;34.00;;;20.30;;
8632;SDS011;4354;49.832;10.746;2024-03-08T03:48:06;31.20;;;19.37;;
8632;SDS011;4354;49.832;10.746;2024-03-08T03:50:37;33.10;;;20.67;;
8632;SDS011;4354;49.832;10.746;2024-03-08T03:53:04;33.50;;;20.33;;
8632;SDS011;4354;49.832;10.746;2024-03-08T03:55:37;33.90;;;19.93;;
8632;SDS011;4354;49.832;10.746;2024-03-08T03:58:06;34.70;;;18.80;;
8632;SDS011;4354;49.832;10.746;2024-03-08T04:00:33;28.47;;;18.73;;
8632;SDS011;4354;49.832;10.746;2024-03-08T04:03:00;30.57;;;17.70;;
8632;SDS011;4354;49.832;10.746;2024-03-08T04:05:27;32.33;;;18.87;;
8632;SDS011;4354;49.832;10.746;2024-03-08T04:07:54;29.80;;;17.87;;
8632;SDS011;4354;49.832;10.746;2024-03-08T04:10:21;30.90;;;18.53;;
8632;SDS011;4354;49.832;10.746;2024-03-08T04:12:48;29.17;;;18.40;;
8632;SDS011;4354;49.832;10.746;2024-03-08T04:15:15;31.37;;;19.30;;
8632;SDS011;4354;49.832;10.746;2024-03-08T04:17:42;32.83;;;19.00;;
8632;SDS011;4354;49.832;10.746;2024-03-08T04:20:09;36.30;;;20.87;;
8632;SDS011;4354;49.832;10.746;2024-03-08T04:22:37;34.63;;;19.97;;
8632;SDS011;4354;49.832;10.746;2024-03-08T04:25:04;32.43;;;19.90;;
8632;SDS011;4354;49.832;10.746;2024-03-08T04:27:32;34.13;;;19.73;;
8632;SDS011;4354;49.832;10.746;2024-03-08T04:30:01;31.03;;;19.13;;
8632;SDS011;4354;49.832;10.746;2024-03-08T04:32:28;30.73;;;18.40;;
8632;SDS011;4354;49.832;10.746;2024-03-08T04:34:56;33.40;;;19.93;;
8632;SDS011;4354;49.832;10.746;2024-03-08T04:37:23;33.50;;;18.87;;
8632;SDS011;4354;49.832;10.746;2024-03-08T04:39:51;31.57;;;19.27;;
8632;SDS011;4354;49.832;10.746;2024-03-08T04:42:18;34.40;;;19.80;;
8632;SDS011;4354;49.832;10.746;2024-03-08T04:44:45;33.17;;;18.40;;
8632;SDS011;4354;49.832;10.746;2024-03-08T04:47:12;33.80;;;19.80;;
8632;SDS011;4354;49.832;10.746;2024-03-08T04:49:39;33.60;;;20.33;;
8632;SDS011;4354;49.832;10.746;2024-03-08T04:52:06;34.37;;;19.40;;
8632;SDS011;4354;49.832;10.746;2024-03-08T04:54:33;32.17;;;18.93;;
8632;SDS011;4354;49.832;10.746;2024-03-08T04:57:00;34.93;;;19.87;;
8632;SDS011;4354;49.832;10.746;2024-03-08T04:59:32;37.17;;;20.23;;
8632;SDS011;4354;49.832;10.746;2024-03-08T05:01:59;34.77;;;18.67;;
8632;SDS011;4354;49.832;10.746;2024-03-08T05:04:26;34.17;;;19.30;;
8632;SDS011;4354;49.832;10.746;2024-03-08T05:06:53;32.77;;;19.30;;
8632;SDS011;4354;49.832;10.746;2024-03-08T05:09:20;34.17;;;20.90;;
8632;SDS011;4354;49.832;10.746;2024-03-08T05:11:47;38.83;;;22.00;;
8632;SDS011;4354;49.832;10.746;2024-03-08T05:14:14;43.80;;;24.50;;
8632;SDS011;4354;49.832;10.746;2024-03-08T05:16:46;41.93;;;22.50;;
8632;SDS011;4354;49.832;10.746;2024-03-08T05:19:16;44.87;;;24.80;;
8632;SDS011;4354;49.832;10.746;2024-03-08T05:21:45;48.90;;;26.80;;
8632;SDS011;4354;49.832;10.746;2024-03-08T05:24:13;49.77;;;25.33;;
8632;SDS011;4354;49.832;10.746;2024-03-08T05:26:42;48.67;;;26.37;;
8632;SDS011;4354;49.832;10.746;2024-03-08T05:29:09;46.73;;;27.70;;
8632;SDS011;4354;49.832;10.746;2024-03-08T05:31:39;52.10;;;27.93;;
8632;SDS011;4354;49.832;10.746;2024-03-08T05:34:09;52.73;;;27.73;;
8632;SDS011;4354;49.832;10.746;2024-03-08T05:36:36;50.60;;;27.63;;
8632;SDS011;4354;49.832;10.746;2024-03-08T05:39:03;49.03;;;28.37;;
8632;SDS011;4354;49.832;10.746;2024-03-08T05:41:32;52.27;;;27.60;;
8632;SDS011;4354;49.832;10.746;2024-03-08T05:43:59;49.97;;;28.20;;
8632;SDS011;4354;49.832;10.746;2024-03-08T05:46:26;50.30;;;28.90;;
8632;SDS011;4354;49.832;10.746;2024-03-08T05:48:53;51.80;;;28.63;;
8632;SDS011;4354;49.832;10.746;2024-03-08T05:51:23;53.17;;;27.97;;
8632;SDS011;4354;49.832;10.746;2024-03-08T05:53:50;51.03;;;28.93;;
8632;SDS011;4354;49.832;10.746;2024-03-08T05:56:19;52.57;;;28.43;;
8632;SDS011;4354;49.832;10.746;2024-03-08T05:58:46;52.23;;;29.73;;
8632;SDS011;4354;49.832;10.746;2024-03-08T06:01:14;46.00;;;27.50;;
8632;SDS011;4354;49.832;10.746;2024-03-08T06:03:41;48.53;;;27.03;;
8632;SDS011;4354;49.832;10.746;2024-03-08T06:06:12;44.30;;;26.33;;
8632;SDS011;4354;49.832;10.746;2024-03-08T06:08:39;45.40;;;28.10;;
8632;SDS011;4354;49.832;10.746;2024-03-08T06:11:06;46.73;;;28.53;;
8632;SDS011;4354;49.832;10.746;2024-03-08T06:13:33;44.70;;;27.20;;
8632;SDS011;4354;49.832;10.746;2024-03-08T06:16:01;47.67;;;27.30;;
8632;SDS011;4354;49.832;10.746;2024-03-08T06:18:31;47.90;;;27.40;;
8632;SDS011;4354;49.832;10.746;2024-03-08T06:20:58;47.43;;;26.60;;
8632;SDS011;4354;49.832;10.746;2024-03-08T06:23:25;45.60;;;27.67;;
8632;SDS011;4354;49.832;10.746;2024-03-08T06:25:53;43.23;;;26.90;;
8632;SDS011;4354;49.832;10.746;2024-03-08T06:28:20;38.27;;;24.57;;
8632;SDS011;4354;49.832;10.746;2024-03-08T06:30:47;43.93;;;26.63;;
8632;SDS011;4354;49.832;10.746;2024-03-08T06:33:14;41.20;;;24.90;;
8632;SDS011;4354;49.832;10.746;2024-03-08T06:35:42;40.10;;;25.57;;
8632;SDS011;4354;49.832;10.746;2024-03-08T06:38:09;43.53;;;27.17;;
8632;SDS011;4354;49.832;10.746;2024-03-08T06:40:37;40.83;;;26.53;;
8632;SDS011;4354;49.832;10.746;2024-03-08T06:43:04;38.73;;;26.23;;
8632;SDS011;4354;49.832;10.746;2024-03-08T06:45:32;41.27;;;25.27;;
8632;SDS011;4354;49.832;10.746;2024-03-08T06:47:59;40.00;;;26.27;;
8632;SDS011;4354;49.832;10.746;2024-03-08T06:50:26;38.47;;;24.17;;
8632;SDS011;4354;49.832;10.746;2024-03-08T06:52:53;41.40;;;25.43;;
8632;SDS011;4354;49.832;10.746;2024-03-08T06:55:20;37.53;;;23.37;;
8632;SDS011;4354;49.832;10.746;2024-03-08T06:57:47;37.33;;;22.93;;
8632;SDS011;4354;49.832;10.746;2024-03-08T07:00:14;37.00;;;23.73;;
8632;SDS011;4354;49.832;10.746;2024-03-08T07:02:45;39.77;;;25.53;;
8632;SDS011;4354;49.832;10.746;2024-03-08T07:05:12;45.37;;;28.63;;
8632;SDS011;4354;49.832;10.746;2024-03-08T07:07:39;46.77;;;28.73;;
8632;SDS011;4354;49.832;10.746;2024-03-08T07:10:08;43.67;;;26.23;;
8632;SDS011;4354;49.832;10.746;2024-03-08T07:12:37;32.60;;;22.93;;
8632;SDS011;4354;49.832;10.746;2024-03-08T07:15:05;34.53;;;22.90;;
8632;SDS011;4354;49.832;10.746;2024-03-08T07:17:32;35.97;;;23.80;;
8632;SDS011;4354;49.832;10.746;2024-03-08T07:20:01;33.83;;;22.07;;
8632;SDS011;4354;49.832;10.746;2024-03-08T07:22:34;34.43;;;22.80;;
8632;SDS011;4354;49.832;10.746;2024-03-08T07:25:03;34.17;;;22.00;;
8632;SDS011;4354;49.832;10.746;2024-03-08T07:27:48;33.50;;;21.80;;
8632;SDS011;4354;49.832;10.746;2024-03-08T07:30:19;33.10;;;21.40;;
8632;SDS011;4354;49.832;10.746;2024-03-08T07:33:05;32.37;;;21.97;;
8632;SDS011;4354;49.832;10.746;2024-03-08T07:35:39;34.43;;;21.10;;
8632;SDS011;4354;49.832;10.746;2024-03-08T07:38:07;35.27;;;21.60;;
8632;SDS011;4354;49.832;10.746;2024-03-08T07:40:39;32.60;;;21.90;;
8632;SDS011;4354;49.832;10.746;2024-03-08T07:43:10;28.67;;;20.27;;
8632;SDS011;4354;49.832;10.746;2024-03-08T07:45:38;30.93;;;20.30;;
8632;SDS011;4354;49.832;10.746;2024-03-08T07:48:05;27.60;;;18.37;;
8632;SDS011;4354;49.832;10.746;2024-03-08T07:50:39;27.73;;;18.80;;
8632;SDS011;4354;49.832;10.746;2024-03-08T07:53:07;29.90;;;18.00;;
8632;SDS011;4354;49.832;10.746;2024-03-08T07:55:35;23.03;;;18.60;;
8632;SDS011;4354;49.832;10.746;2024-03-08T07:58:02;27.37;;;19.30;;
8632;SDS011;4354;49.832;10.746;2024-03-08T08:00:30;25.30;;;18.50;;
8632;SDS011;4354;49.832;10.746;2024-03-08T08:03:00;23.70;;;18.05;;
8632;SDS011;4354;49.832;10.746;2024-03-08T08:05:28;26.85;;;19.10;;
8632;SDS011;4354;49.832;10.746;2024-03-08T08:07:55;23.13;;;19.02;;
8632;SDS011;4354;49.832;10.746;2024-03-08T08:10:22;22.77;;;19.15;;
8632;SDS011;4354;49.832;10.746;2024-03-08T08:12:52;24.40;;;18.00;;
8632;SDS011;4354;49.832;10.746;2024-03-08T08:15:19;23.35;;;19.40;;
8632;SDS011;4354;49.832;10.746;2024-03-08T08:17:46;23.60;;;19.23;;
8632;SDS011;4354;49.832;10.746;2024-03-08T08:20:18;24.00;;;20.08;;
8632;SDS011;4354;49.832;10.746;2024-03-08T08:22:45;23.02;;;18.77;;
8632;SDS011;4354;49.832;10.746;2024-03-08T08:25:14;20.75;;;17.70;;
8632;SDS011;4354;49.832;10.746;2024-03-08T08:27:41;24.27;;;18.33;;
8632;SDS011;4354;49.832;10.746;2024-03-08T08:30:09;25.52;;;20.63;;
8632;SDS011;4354;49.832;10.746;2024-03-08T08:32:37;22.30;;;19.02;;
8632;SDS011;4354;49.832;10.746;2024-03-08T08:35:11;22.70;;;19.02;;
8632;SDS011;4354;49.832;10.746;2024-03-08T08:37:39;22.80;;;18.73;;
8632;SDS011;4354;49.832;10.746;2024-03-08T08:40:06;21.00;;;18.48;;
8632;SDS011;4354;49.832;10.746;2024-03-08T08:42:41;25.48;;;19.30;;
8632;SDS011;4354;49.832;10.746;2024-03-08T08:45:08;22.85;;;19.42;;
8632;SDS011;4354;49.832;10.746;2024-03-08T08:47:42;20.73;;;18.15;;
8632;SDS011;4354;49.832;10.746;2024-03-08T08:50:13;21.45;;;17.70;;
8632;SDS011;4354;49.832;10.746;2024-03-08T08:52:42;21.27;;;18.98;;
8632;SDS011;4354;49.832;10.746;2024-03-08T08:55:10;21.80;;;18.92;;
8632;SDS011;4354;49.832;10.746;2024-03-08T08:57:41;21.15;;;18.65;;
8632;SDS011;4354;49.832;10.746;2024-03-08T09:00:08;21.23;;;18.73;;
8632;SDS011;4354;49.832;10.746;2024-03-08T09:02:41;19.75;;;17.65;;
8632;SDS011;4354;49.832;10.746;2024-03-08T09:05:08;22.70;;;18.60;;
8632;SDS011;4354;49.832;10.746;2024-03-08T09:07:35;20.52;;;17.80;;
8632;SDS011;4354;49.832;10.746;2024-03-08T09:10:03;20.50;;;17.90;;
8632;SDS011;4354;49.832;10.746;2024-03-08T09:12:33;20.73;;;18.50;;
8632;SDS011;4354;49.832;10.746;2024-03-08T09:14:59;21.67;;;17.40;;
8632;SDS011;4354;49.832;10.746;2024-03-08T09:17:26;21.05;;;18.23;;
8632;SDS011;4354;49.832;10.746;2024-03-08T09:19:53;19.70;;;17.60;;
8632;SDS011;4354;49.832;10.746;2024-03-08T09:22:20;20.13;;;17.33;;
8632;SDS011;4354;49.832;10.746;2024-03-08T09:24:47;20.10;;;18.00;;
8632;SDS011;4354;49.832;10.746;2024-03-08T09:27:14;19.88;;;17.58;;
8632;SDS011;4354;49.832;10.746;2024-03-08T09:29:41;20.38;;;18.15;;
8632;SDS011;4354;49.832;10.746;2024-03-08T09:32:07;19.42;;;16.70;;
8632;SDS011;4354;49.832;10.746;2024-03-08T09:34:34;18.48;;;16.15;;
8632;SDS011;4354;49.832;10.746;2024-03-08T09:37:04;20.17;;;17.92;;
8632;SDS011;4354;49.832;10.746;2024-03-08T09:39:31;20.80;;;17.95;;
8632;SDS011;4354;49.832;10.746;2024-03-08T09:42:00;20.30;;;17.45;;
8632;SDS011;4354;49.832;10.746;2024-03-08T09:44:27;20.45;;;18.23;;
8632;SDS011;4354;49.832;10.746;2024-03-08T09:46:55;19.30;;;17.25;;
8632;SDS011;4354;49.832;10.746;2024-03-08T09:49:24;22.33;;;17.02;;
8632;SDS011;4354;49.832;10.746;2024-03-08T09:51:51;19.52;;;17.42;;
8632;SDS011;4354;49.832;10.746;2024-03-08T09:54:19;19.92;;;17.80;;
8632;SDS011;4354;49.832;10.746;2024-03-08T09:56:51;18.73;;;16.60;;
8632;SDS011;4354;49.832;10.746;2024-03-08T09:59:19;21.40;;;17.85;;
8632;SDS011;4354;49.832;10.746;2024-03-08T10:01:52;19.75;;;16.98;;
8632;SDS011;4354;49.832;10.746;2024-03-08T10:04:19;20.95;;;17.27;;
8632;SDS011;4354;49.832;10.746;2024-03-08T10:06:47;22.25;;;17.27;;
8632;SDS011;4354;49.832;10.746;2024-03-08T10:09:14;22.13;;;17.10;;
8632;SDS011;4354;49.832;10.746;2024-03-08T10:11:42;20.40;;;17.05;;
8632;SDS011;4354;49.832;10.746;2024-03-08T10:14:09;19.20;;;16.67;;
8632;SDS011;4354;49.832;10.746;2024-03-08T10:16:40;19.45;;;16.48;;
8632;SDS011;4354;49.832;10.746;2024-03-08T10:19:07;20.25;;;16.75;;
8632;SDS011;4354;49.832;10.746;2024-03-08T10:21:36;20.77;;;16.48;;
8632;SDS011;4354;49.832;10.746;2024-03-08T10:24:15;18.55;;;15.85;;
8632;SDS011;4354;49.832;10.746;2024-03-08T10:26:42;16.63;;;14.73;;
8632;SDS011;4354;49.832;10.746;2024-03-08T10:29:10;19.45;;;16.70;;
8632;SDS011;4354;49.832;10.746;2024-03-08T10:31:45;18.35;;;16.27;;
8632;SDS011;4354;49.832;10.746;2024-03-08T10:34:12;17.05;;;14.93;;
8632;SDS011;4354;49.832;10.746;2024-03-08T10:36:39;17.33;;;15.52;;
8632;SDS011;4354;49.832;10.746;2024-03-08T10:39:28;18.20;;;15.68;;
8632;SDS011;4354;49.832;10.746;2024-03-08T10:41:57;18.23;;;15.60;;
8632;SDS011;4354;49.832;10.746;2024-03-08T10:47:26;17.95;;;15.00;;
8632;SDS011;4354;49.832;10.746;2024-03-08T10:52:49;16.30;;;13.73;;
8632;SDS011;4354;49.832;10.746;2024-03-08T10:55:18;15.68;;;13.52;;
8632;SDS011;4354;49.832;10.746;2024-03-08T10:57:47;17.23;;;15.35;;
8632;SDS011;4354;49.832;10.746;2024-03-08T11:00:14;18.27;;;15.07;;
8632;SDS011;4354;49.832;10.746;2024-03-08T11:02:45;15.55;;;13.68;;
8632;SDS011;4354;49.832;10.746;2024-03-08T11:05:21;15.30;;;13.70;;
8632;SDS011;4354;49.832;10.746;2024-03-08T11:10:50;16.05;;;13.85;;
8632;SDS011;4354;49.832;10.746;2024-03-08T11:16:07;15.07;;;13.18;;
8632;SDS011;4354;49.832;10.746;2024-03-08T11:18:36;15.13;;;12.30;;
8632;SDS011;4354;49.832;10.746;2024-03-08T11:21:04;18.55;;;14.23;;
8632;SDS011;4354;49.832;10.746;2024-03-08T11:23:39;16.25;;;12.88;;
8632;SDS011;4354;49.832;10.746;2024-03-08T11:26:23;15.15;;;13.57;;
8632;SDS011;4354;49.832;10.746;2024-03-08T11:28:50;15.93;;;14.05;;
8632;SDS011;4354;49.832;10.746;2024-03-08T11:31:23;16.27;;;13.70;;
8632;SDS011;4354;49.832;10.746;2024-03-08T11:33:52;16.10;;;13.55;;
8632;SDS011;4354;49.832;10.746;2024-03-08T11:36:20;15.55;;;12.57;;
8632;SDS011;4354;49.832;10.746;2024-03-08T11:38:48;14.35;;;12.13;;
8632;SDS011;4354;49.832;10.746;2024-03-08T11:41:19;17.15;;;13.38;;
8632;SDS011;4354;49.832;10.746;2024-03-08T11:43:47;16.48;;;13.05;;
8632;SDS011;4354;49.832;10.746;2024-03-08T11:46:16;15.48;;;12.60;;
8632;SDS011;4354;49.832;10.746;2024-03-08T11:48:46;15.13;;;12.75;;
8632;SDS011;4354;49.832;10.746;2024-03-08T11:51:14;14.57;;;12.05;;
8632;SDS011;4354;49.832;10.746;2024-03-08T11:53:41;15.07;;;12.45;;
8632;SDS011;4354;49.832;10.746;2024-03-08T11:56:13;14.80;;;12.30;;
8632;SDS011;4354;49.832;10.746;2024-03-08T11:58:42;15.30;;;13.48;;
8632;SDS011;4354;49.832;10.746;2024-03-08T12:01:20;14.10;;;12.30;;
8632;SDS011;4354;49.832;10.746;2024-03-08T12:03:52;14.43;;;12.18;;
8632;SDS011;4354;49.832;10.746;2024-03-08T12:06:25;15.85;;;12.27;;
8632;SDS011;4354;49.832;10.746;2024-03-08T12:08:53;16.73;;;12.88;;
8632;SDS011;4354;49.832;10.746;2024-03-08T12:11:20;16.85;;;13.52;;
8632;SDS011;4354;49.832;10.746;2024-03-08T12:13:50;16.38;;;12.35;;
8632;SDS011;4354;49.832;10.746;2024-03-08T12:16:18;15.63;;;12.40;;
8632;SDS011;4354;49.832;10.746;2024-03-08T12:18:47;16.95;;;13.40;;
8632;SDS011;4354;49.832;10.746;2024-03-08T12:21:14;16.42;;;13.93;;
8632;SDS011;4354;49.832;10.746;2024-03-08T12:23:46;16.55;;;13.27;;
8632;SDS011;4354;49.832;10.746;2024-03-08T12:26:24;16.20;;;12.93;;
8632;SDS011;4354;49.832;10.746;2024-03-08T12:28:52;16.30;;;12.10;;
8632;SDS011;4354;49.832;10.746;2024-03-08T12:31:20;16.13;;;12.98;;
8632;SDS011;4354;49.832;10.746;2024-03-08T12:33:51;18.77;;;13.50;;
8632;SDS011;4354;49.832;10.746;2024-03-08T12:36:22;17.00;;;13.43;;
8632;SDS011;4354;49.832;10.746;2024-03-08T12:38:50;18.45;;;13.13;;
8632;SDS011;4354;49.832;10.746;2024-03-08T12:41:17;15.90;;;12.77;;
8632;SDS011;4354;49.832;10.746;2024-03-08T12:43:47;17.30;;;13.50;;
8632;SDS011;4354;49.832;10.746;2024-03-08T12:46:17;17.83;;;14.07;;
8632;SDS011;4354;49.832;10.746;2024-03-08T12:48:56;16.65;;;12.68;;
8632;SDS011;4354;49.832;10.746;2024-03-08T12:51:23;15.98;;;13.30;;
8632;SDS011;4354;49.832;10.746;2024-03-08T12:53:50;16.88;;;13.68;;
8632;SDS011;4354;49.832;10.746;2024-03-08T12:56:29;15.35;;;12.60;;
8632;SDS011;4354;49.832;10.746;2024-03-08T12:58:57;17.42;;;13.32;;
8632;SDS011;4354;49.832;10.746;2024-03-08T13:01:24;15.40;;;12.93;;
8632;SDS011;4354;49.832;10.746;2024-03-08T13:03:51;17.10;;;13.77;;
8632;SDS011;4354;49.832;10.746;2024-03-08T13:06:18;17.83;;;13.70;;
8632;SDS011;4354;49.832;10.746;2024-03-08T13:08:51;16.73;;;14.15;;
8632;SDS011;4354;49.832;10.746;2024-03-08T13:11:21;17.80;;;13.55;;
8632;SDS011;4354;49.832;10.746;2024-03-08T13:13:50;16.02;;;13.23;;
8632;SDS011;4354;49.832;10.746;2024-03-08T13:16:19;14.90;;;12.45;;
8632;SDS011;4354;49.832;10.746;2024-03-08T13:18:46;17.48;;;13.75;;
8632;SDS011;4354;49.832;10.746;2024-03-08T13:21:20;20.33;;;13.48;;
8632;SDS011;4354;49.832;10.746;2024-03-08T13:23:50;17.20;;;13.35;;
8632;SDS011;4354;49.832;10.746;2024-03-08T13:26:19;16.02;;;12.63;;
8632;SDS011;4354;49.832;10.746;2024-03-08T13:28:49;17.58;;;13.38;;
8632;SDS011;4354;49.832;10.746;2024-03-08T13:31:20;15.40;;;11.82;;
8632;SDS011;4354;49.832;10.746;2024-03-08T13:33:47;16.52;;;13.27;;
8632;SDS011;4354;49.832;10.746;2024-03-08T13:36:14;16.10;;;12.75;;
8632;SDS011;4354;49.832;10.746;2024-03-08T13:38:42;16.92;;;11.93;;
8632;SDS011;4354;49.832;10.746;2024-03-08T13:41:11;15.15;;;12.35;;
8632;SDS011;4354;49.832;10.746;2024-03-08T13:43:39;17.50;;;11.77;;
8632;SDS011;4354;49.832;10.746;2024-03-08T13:46:06;14.20;;;11.00;;
8632;SDS011;4354;49.832;10.746;2024-03-08T13:48:33;12.60;;;10.43;;
8632;SDS011;4354;49.832;10.746;2024-03-08T13:51:00;13.70;;;10.82;;
8632;SDS011;4354;49.832;10.746;2024-03-08T13:53:27;13.40;;;10.65;;
8632;SDS011;4354;49.832;10.746;2024-03-08T13:55:54;12.75;;;10.20;;
8632;SDS011;4354;49.832;10.746;2024-03-08T13:58:22;13.25;;;10.70;;
8632;SDS011;4354;49.832;10.746;2024-03-08T14:00:50;13.35;;;10.20;;
8632;SDS011;4354;49.832;10.746;2024-03-08T14:03:17;12.02;;;9.98;;
8632;SDS011;4354;49.832;10.746;2024-03-08T14:05:44;19.17;;;13.07;;
8632;SDS011;4354;49.832;10.746;2024-03-08T14:08:13;17.40;;;14.50;;
8632;SDS011;4354;49.832;10.746;2024-03-08T14:10:40;15.48;;;12.05;;
8632;SDS011;4354;49.832;10.746;2024-03-08T14:13:08;11.85;;;9.55;;
8632;SDS011;4354;49.832;10.746;2024-03-08T14:15:35;13.55;;;10.15;;
8632;SDS011;4354;49.832;10.746;2024-03-08T14:18:02;13.07;;;9.40;;
8632;SDS011;4354;49.832;10.746;2024-03-08T14:20:33;12.25;;;9.15;;
8632;SDS011;4354;49.832;10.746;2024-03-08T14:23:00;11.68;;;8.70;;
8632;SDS011;4354;49.832;10.746;2024-03-08T14:25:27;12.03;;;8.83;;
8632;SDS011;4354;49.832;10.746;2024-03-08T14:27:56;10.70;;;8.17;;
8632;SDS011;4354;49.832;10.746;2024-03-08T14:30:30;9.70;;;7.87;;
8632;SDS011;4354;49.832;10.746;2024-03-08T14:33:05;14.60;;;10.50;;
8632;SDS011;4354;49.832;10.746;2024-03-08T14:35:32;8.57;;;7.47;;
8632;SDS011;4354;49.832;10.746;2024-03-08T14:38:00;10.10;;;7.17;;
8632;SDS011;4354;49.832;10.746;2024-03-08T14:40:27;10.10;;;7.83;;
8632;SDS011;4354;49.832;10.746;2024-03-08T14:42:56;11.47;;;7.50;;
8632;SDS011;4354;49.832;10.746;2024-03-08T14:45:23;9.10;;;7.30;;
8632;SDS011;4354;49.832;10.746;2024-03-08T14:47:50;9.47;;;7.27;;
8632;SDS011;4354;49.832;10.746;2024-03-08T14:50:18;10.43;;;8.10;;
8632;SDS011;4354;49.832;10.746;2024-03-08T14:52:49;11.80;;;7.73;;
8632;SDS011;4354;49.832;10.746;2024-03-08T14:55:18;8.30;;;6.77;;
8632;SDS011;4354;49.832;10.746;2024-03-08T14:57:48;9.00;;;7.50;;
8632;SDS011;4354;49.832;10.746;2024-03-08T15:00:18;10.37;;;7.00;;
8632;SDS011;4354;49.832;10.746;2024-03-08T15:02:53;8.60;;;7.00;;
8632;SDS011;4354;49.832;10.746;2024-03-08T15:05:20;10.07;;;8.53;;
8632;SDS011;4354;49.832;10.746;2024-03-08T15:07:53;10.30;;;8.90;;
8632;SDS011;4354;49.832;10.746;2024-03-08T15:10:20;8.87;;;7.30;;
8632;SDS011;4354;49.832;10.746;2024-03-08T15:12:51;9.90;;;8.20;;
8632;SDS011;4354;49.832;10.746;2024-03-08T15:15:22;9.67;;;7.77;;
8632;SDS011;4354;49.832;10.746;2024-03-08T15:17:51;8.97;;;7.33;;